sensor_id;sensor_type;location;lat;lon;timestamp;pressure;altitude;pressure_sealevel;temperature;humidity
77027;BME280;65956;52.986;17.490;2023-03-14T00:01:44;98194.31;;;10.34;80.16
77027;BME280;65956;52.986;17.490;2023-03-14T00:04:11;98191.77;;;10.35;80.01
77027;BME280;65956;52.986;17.490;2023-03-14T00:06:38;98181.95;;;10.36;79.97
77027;BME280;65956;52.986;17.490;2023-03-14T00:09:07;98183.58;;;10.38;79.87
77027;BME280;65956;52.986;17.490;2023-03-14T00:11:34;98187.41;;;10.41;79.65
77027;BME280;65956;52.986;17.490;2023-03-14T00:14:01;98182.46;;;10.44;79.59
77027;BME280;65956;52.986;17.490;2023-03-14T00:16:27;98184.19;;;10.49;79.18
77027;BME280;65956;52.986;17.490;2023-03-14T00:18:54;98192.38;;;10.53;78.90
77027;BME280;65956;52.986;17.490;2023-03-14T00:21:21;98197.36;;;10.56;78.77
77027;BME280;65956;52.986;17.490;2023-03-14T00:23:47;98196.98;;;10.60;78.56
77027;BME280;65956;52.986;17.490;2023-03-14T00:26:16;98198.41;;;10.60;78.55
77027;BME280;65956;52.986;17.490;2023-03-14T00:28:44;98193.33;;;10.60;78.53
77027;BME280;65956;52.986;17.490;2023-03-14T00:31:14;98194.24;;;10.57;78.50
77027;BME280;65956;52.986;17.490;2023-03-14T00:33:43;98183.64;;;10.58;78.39
77027;BME280;65956;52.986;17.490;2023-03-14T00:36:13;98184.73;;;10.60;78.27
77027;BME280;65956;52.986;17.490;2023-03-14T00:38:41;98181.83;;;10.62;78.33
77027;BME280;65956;52.986;17.490;2023-03-14T00:41:11;98177.04;;;10.62;78.19
77027;BME280;65956;52.986;17.490;2023-03-14T00:43:39;98170.64;;;10.60;78.40
77027;BME280;65956;52.986;17.490;2023-03-14T00:46:06;98166.91;;;10.59;78.16
77027;BME280;65956;52.986;17.490;2023-03-14T00:48:32;98166.24;;;10.61;77.95
77027;BME280;65956;52.986;17.490;2023-03-14T00:51:02;98162.46;;;10.59;78.05
77027;BME280;65956;52.986;17.490;2023-03-14T00:53:29;98154.02;;;10.60;77.81
77027;BME280;65956;52.986;17.490;2023-03-14T00:55:56;98159.55;;;10.61;77.87
77027;BME280;65956;52.986;17.490;2023-03-14T00:58:23;98159.91;;;10.59;77.72
77027;BME280;65956;52.986;17.490;2023-03-14T01:00:50;98159.23;;;10.57;77.61
77027;BME280;65956;52.986;17.490;2023-03-14T01:03:17;98161.55;;;10.57;77.67
77027;BME280;65956;52.986;17.490;2023-03-14T01:05:44;98152.81;;;10.55;77.56
77027;BME280;65956;52.986;17.490;2023-03-14T01:08:10;98149.71;;;10.59;77.45
77027;BME280;65956;52.986;17.490;2023-03-14T01:10:39;98148.14;;;10.59;77.22
77027;BME280;65956;52.986;17.490;2023-03-14T01:13:08;98158.73;;;10.63;77.22
77027;BME280;65956;52.986;17.490;2023-03-14T01:15:37;98158.61;;;10.60;77.32
77027;BME280;65956;52.986;17.490;2023-03-14T01:18:04;98161.73;;;10.59;77.40
77027;BME280;65956;52.986;17.490;2023-03-14T01:20:31;98153.69;;;10.56;77.65
77027;BME280;65956;52.986;17.490;2023-03-14T01:22:58;98146.98;;;10.57;77.41
77027;BME280;65956;52.986;17.490;2023-03-14T01:25:25;98142.92;;;10.57;77.68
77027;BME280;65956;52.986;17.490;2023-03-14T01:27:52;98136.10;;;10.56;77.88
77027;BME280;65956;52.986;17.490;2023-03-14T01:30:18;98130.37;;;10.56;77.77
77027;BME280;65956;52.986;17.490;2023-03-14T01:32:45;98129.00;;;10.57;77.93
77027;BME280;65956;52.986;17.490;2023-03-14T01:35:12;98115.06;;;10.53;78.08
77027;BME280;65956;52.986;17.490;2023-03-14T01:37:39;98114.37;;;10.52;78.35
77027;BME280;65956;52.986;17.490;2023-03-14T01:40:10;98106.23;;;10.53;78.29
77027;BME280;65956;52.986;17.490;2023-03-14T01:42:37;98097.66;;;10.56;78.28
77027;BME280;65956;52.986;17.490;2023-03-14T01:45:04;98095.06;;;10.63;78.33
77027;BME280;65956;52.986;17.490;2023-03-14T01:47:31;98085.52;;;10.67;78.27
77027;BME280;65956;52.986;17.490;2023-03-14T01:50:07;98082.77;;;10.68;78.25
77027;BME280;65956;52.986;17.490;2023-03-14T01:52:46;98072.20;;;10.72;78.33
77027;BME280;65956;52.986;17.490;2023-03-14T01:55:20;98064.11;;;10.75;78.20
77027;BME280;65956;52.986;17.490;2023-03-14T01:57:59;98057.15;;;10.73;78.35
77027;BME280;65956;52.986;17.490;2023-03-14T02:00:27;98059.45;;;10.69;78.64
77027;BME280;65956;52.986;17.490;2023-03-14T02:03:01;98059.97;;;10.67;79.00
77027;BME280;65956;52.986;17.490;2023-03-14T02:05:32;98059.17;;;10.71;78.98
77027;BME280;65956;52.986;17.490;2023-03-14T02:08:13;98051.81;;;10.74;79.05
77027;BME280;65956;52.986;17.490;2023-03-14T02:10:50;98057.30;;;10.74;79.23
77027;BME280;65956;52.986;17.490;2023-03-14T02:13:23;98054.98;;;10.74;79.31
77027;BME280;65956;52.986;17.490;2023-03-14T02:16:09;98054.98;;;10.78;79.33
77027;BME280;65956;52.986;17.490;2023-03-14T02:18:45;98059.96;;;10.80;79.43
77027;BME280;65956;52.986;17.490;2023-03-14T02:29:36;98060.23;;;10.89;79.82
77027;BME280;65956;52.986;17.490;2023-03-14T02:32:07;98072.00;;;10.91;79.77
77027;BME280;65956;52.986;17.490;2023-03-14T02:34:34;98076.65;;;10.93;79.87
77027;BME280;65956;52.986;17.490;2023-03-14T02:37:03;98068.65;;;10.94;79.93
77027;BME280;65956;52.986;17.490;2023-03-14T02:39:38;98070.03;;;10.93;80.09
77027;BME280;65956;52.986;17.490;2023-03-14T02:42:06;98078.75;;;10.96;80.14
77027;BME280;65956;52.986;17.490;2023-03-14T02:44:33;98069.15;;;10.97;80.18
77027;BME280;65956;52.986;17.490;2023-03-14T02:47:04;98075.83;;;10.97;80.33
77027;BME280;65956;52.986;17.490;2023-03-14T02:49:32;98075.92;;;10.97;80.36
77027;BME280;65956;52.986;17.490;2023-03-14T02:52:00;98075.78;;;10.96;80.53
77027;BME280;65956;52.986;17.490;2023-03-14T02:54:27;98079.09;;;10.98;80.65
77027;BME280;65956;52.986;17.490;2023-03-14T02:56:54;98080.00;;;11.01;80.70
77027;BME280;65956;52.986;17.490;2023-03-14T02:59:20;98084.48;;;11.02;80.78
77027;BME280;65956;52.986;17.490;2023-03-14T03:01:55;98081.09;;;11.05;80.88
77027;BME280;65956;52.986;17.490;2023-03-14T03:04:22;98074.33;;;11.05;81.00
77027;BME280;65956;52.986;17.490;2023-03-14T03:06:48;98078.45;;;11.06;81.11
77027;BME280;65956;52.986;17.490;2023-03-14T03:09:15;98076.34;;;11.03;81.10
77027;BME280;65956;52.986;17.490;2023-03-14T03:11:42;98075.45;;;11.02;81.29
77027;BME280;65956;52.986;17.490;2023-03-14T03:14:11;98081.77;;;11.00;81.39
77027;BME280;65956;52.986;17.490;2023-03-14T03:16:38;98078.84;;;10.99;81.24
77027;BME280;65956;52.986;17.490;2023-03-14T03:19:05;98078.22;;;10.98;81.39
77027;BME280;65956;52.986;17.490;2023-03-14T03:21:32;98078.20;;;10.95;81.58
77027;BME280;65956;52.986;17.490;2023-03-14T03:23:58;98087.15;;;10.93;81.77
77027;BME280;65956;52.986;17.490;2023-03-14T03:26:25;98092.34;;;10.88;82.07
77027;BME280;65956;52.986;17.490;2023-03-14T03:28:52;98083.14;;;10.82;82.59
77027;BME280;65956;52.986;17.490;2023-03-14T03:31:19;98074.00;;;10.73;83.04
77027;BME280;65956;52.986;17.490;2023-03-14T03:33:47;98066.50;;;10.63;83.59
77027;BME280;65956;52.986;17.490;2023-03-14T03:36:14;98067.71;;;10.58;83.84
77027;BME280;65956;52.986;17.490;2023-03-14T03:38:40;98059.27;;;10.54;84.17
77027;BME280;65956;52.986;17.490;2023-03-14T03:41:08;98061.79;;;10.52;84.38
77027;BME280;65956;52.986;17.490;2023-03-14T03:43:35;98049.43;;;10.49;84.52
77027;BME280;65956;52.986;17.490;2023-03-14T03:46:04;98040.77;;;10.49;84.60
77027;BME280;65956;52.986;17.490;2023-03-14T03:48:31;98024.39;;;10.48;84.63
77027;BME280;65956;52.986;17.490;2023-03-14T03:51:01;98018.70;;;10.45;84.83
77027;BME280;65956;52.986;17.490;2023-03-14T03:53:29;98012.57;;;10.42;84.84
77027;BME280;65956;52.986;17.490;2023-03-14T03:55:56;98006.64;;;10.40;84.86
77027;BME280;65956;52.986;17.490;2023-03-14T03:58:23;98001.91;;;10.37;84.97
77027;BME280;65956;52.986;17.490;2023-03-14T04:00:49;97997.51;;;10.36;84.95
77027;BME280;65956;52.986;17.490;2023-03-14T04:03:16;97990.86;;;10.33;84.97
77027;BME280;65956;52.986;17.490;2023-03-14T04:05:43;97994.16;;;10.31;84.85
77027;BME280;65956;52.986;17.490;2023-03-14T04:08:10;97988.95;;;10.30;84.91
77027;BME280;65956;52.986;17.490;2023-03-14T04:10:37;97981.39;;;10.30;84.97
77027;BME280;65956;52.986;17.490;2023-03-14T04:13:15;97977.65;;;10.30;85.06
77027;BME280;65956;52.986;17.490;2023-03-14T04:15:44;97974.40;;;10.30;84.93
77027;BME280;65956;52.986;17.490;2023-03-14T04:18:20;97973.96;;;10.31;84.79
77027;BME280;65956;52.986;17.490;2023-03-14T04:20:51;97964.27;;;10.32;84.71
77027;BME280;65956;52.986;17.490;2023-03-14T04:23:19;97966.63;;;10.32;84.53
77027;BME280;65956;52.986;17.490;2023-03-14T04:25:52;97959.95;;;10.32;84.63
77027;BME280;65956;52.986;17.490;2023-03-14T04:28:20;97957.38;;;10.33;84.70
77027;BME280;65956;52.986;17.490;2023-03-14T04:30:47;97949.89;;;10.34;84.53
77027;BME280;65956;52.986;17.490;2023-03-14T04:33:21;97949.10;;;10.34;84.39
77027;BME280;65956;52.986;17.490;2023-03-14T04:35:55;97952.09;;;10.31;84.43
77027;BME280;65956;52.986;17.490;2023-03-14T04:38:22;97948.29;;;10.27;84.50
77027;BME280;65956;52.986;17.490;2023-03-14T04:40:49;97948.17;;;10.20;84.64
77027;BME280;65956;52.986;17.490;2023-03-14T04:43:17;97941.67;;;10.15;84.94
77027;BME280;65956;52.986;17.490;2023-03-14T04:45:49;97924.45;;;10.08;85.05
77027;BME280;65956;52.986;17.490;2023-03-14T04:48:15;97926.15;;;10.03;85.18
77027;BME280;65956;52.986;17.490;2023-03-14T04:50:42;97929.56;;;9.94;85.39
77027;BME280;65956;52.986;17.490;2023-03-14T04:53:09;97933.15;;;9.85;85.82
77027;BME280;65956;52.986;17.490;2023-03-14T04:55:36;97930.91;;;9.78;86.23
77027;BME280;65956;52.986;17.490;2023-03-14T04:58:03;97928.45;;;9.69;86.38
77027;BME280;65956;52.986;17.490;2023-03-14T05:00:30;97927.86;;;9.61;86.53
77027;BME280;65956;52.986;17.490;2023-03-14T05:03:10;97934.29;;;9.53;86.90
77027;BME280;65956;52.986;17.490;2023-03-14T05:05:57;97928.94;;;9.46;86.79
77027;BME280;65956;52.986;17.490;2023-03-14T05:08:51;97933.39;;;9.36;87.12
77027;BME280;65956;52.986;17.490;2023-03-14T05:11:41;97947.00;;;9.29;87.41
77027;BME280;65956;52.986;17.490;2023-03-14T05:14:43;97952.46;;;9.25;87.55
77027;BME280;65956;52.986;17.490;2023-03-14T05:17:25;97944.15;;;9.23;87.62
77027;BME280;65956;52.986;17.490;2023-03-14T05:20:24;97943.96;;;9.20;87.45
77027;BME280;65956;52.986;17.490;2023-03-14T05:23:14;97940.72;;;9.16;87.28
77027;BME280;65956;52.986;17.490;2023-03-14T05:26:07;97933.67;;;9.14;87.04
77027;BME280;65956;52.986;17.490;2023-03-14T05:28:54;97930.16;;;9.09;86.77
77027;BME280;65956;52.986;17.490;2023-03-14T05:31:39;97915.98;;;9.06;86.77
77027;BME280;65956;52.986;17.490;2023-03-14T05:34:30;97908.74;;;9.03;86.69
77027;BME280;65956;52.986;17.490;2023-03-14T05:37:10;97929.08;;;9.01;86.58
77027;BME280;65956;52.986;17.490;2023-03-14T05:39:53;97942.60;;;9.00;86.45
77027;BME280;65956;52.986;17.490;2023-03-14T05:42:38;97942.39;;;8.98;86.24
77027;BME280;65956;52.986;17.490;2023-03-14T05:45:25;97930.89;;;8.97;86.15
77027;BME280;65956;52.986;17.490;2023-03-14T05:48:05;97931.48;;;8.96;86.06
77027;BME280;65956;52.986;17.490;2023-03-14T05:51:04;97930.59;;;8.97;85.86
77027;BME280;65956;52.986;17.490;2023-03-14T05:53:50;97930.42;;;8.97;85.77
77027;BME280;65956;52.986;17.490;2023-03-14T05:56:36;97936.52;;;8.97;85.63
77027;BME280;65956;52.986;17.490;2023-03-14T05:59:15;97939.38;;;8.97;85.42
77027;BME280;65956;52.986;17.490;2023-03-14T06:01:53;97950.73;;;8.97;85.32
77027;BME280;65956;52.986;17.490;2023-03-14T06:04:21;97956.74;;;8.99;85.09
77027;BME280;65956;52.986;17.490;2023-03-14T06:06:51;97957.91;;;9.00;84.83
77027;BME280;65956;52.986;17.490;2023-03-14T06:09:18;97956.50;;;9.00;84.52
77027;BME280;65956;52.986;17.490;2023-03-14T06:11:46;97953.33;;;9.00;84.38
77027;BME280;65956;52.986;17.490;2023-03-14T06:14:13;97963.49;;;8.99;84.33
77027;BME280;65956;52.986;17.490;2023-03-14T06:16:42;97966.17;;;9.00;84.26
77027;BME280;65956;52.986;17.490;2023-03-14T06:19:09;97962.73;;;9.01;84.02
77027;BME280;65956;52.986;17.490;2023-03-14T06:21:37;97965.89;;;9.03;83.89
77027;BME280;65956;52.986;17.490;2023-03-14T06:24:04;97959.91;;;9.05;83.75
77027;BME280;65956;52.986;17.490;2023-03-14T06:26:32;97960.83;;;9.07;83.65
77027;BME280;65956;52.986;17.490;2023-03-14T06:28:59;97957.02;;;9.08;83.52
77027;BME280;65956;52.986;17.490;2023-03-14T06:31:30;97962.55;;;9.08;83.64
77027;BME280;65956;52.986;17.490;2023-03-14T06:33:59;97972.65;;;9.07;83.57
77027;BME280;65956;52.986;17.490;2023-03-14T06:36:29;97979.16;;;9.07;83.47
77027;BME280;65956;52.986;17.490;2023-03-14T06:38:56;97980.81;;;9.14;83.38
77027;BME280;65956;52.986;17.490;2023-03-14T06:41:23;97969.87;;;9.19;83.34
77027;BME280;65956;52.986;17.490;2023-03-14T06:43:52;97965.42;;;9.23;83.21
77027;BME280;65956;52.986;17.490;2023-03-14T06:46:20;97967.41;;;9.29;82.79
77027;BME280;65956;52.986;17.490;2023-03-14T06:48:47;97962.08;;;9.39;82.57
77027;BME280;65956;52.986;17.490;2023-03-14T06:51:14;97964.63;;;9.49;82.22
77027;BME280;65956;52.986;17.490;2023-03-14T06:53:41;97961.69;;;9.58;81.88
77027;BME280;65956;52.986;17.490;2023-03-14T06:56:08;97960.20;;;9.66;81.83
77027;BME280;65956;52.986;17.490;2023-03-14T06:58:35;97944.93;;;9.71;81.32
77027;BME280;65956;52.986;17.490;2023-03-14T07:01:04;97945.52;;;9.82;81.27
77027;BME280;65956;52.986;17.490;2023-03-14T07:03:36;97960.68;;;9.88;80.72
77027;BME280;65956;52.986;17.490;2023-03-14T07:06:04;97955.23;;;9.95;80.55
77027;BME280;65956;52.986;17.490;2023-03-14T07:08:33;97948.25;;;10.03;80.39
77027;BME280;65956;52.986;17.490;2023-03-14T07:11:00;97951.50;;;10.12;80.36
77027;BME280;65956;52.986;17.490;2023-03-14T07:13:27;97943.00;;;10.16;79.77
77027;BME280;65956;52.986;17.490;2023-03-14T07:16:01;97944.13;;;10.24;79.68
77027;BME280;65956;52.986;17.490;2023-03-14T07:18:28;97938.20;;;10.30;79.41
77027;BME280;65956;52.986;17.490;2023-03-14T13:22:34;97905.58;;;13.31;66.34
77027;BME280;65956;52.986;17.490;2023-03-14T13:25:10;97906.63;;;13.52;65.85
77027;BME280;65956;52.986;17.490;2023-03-14T13:27:37;97904.57;;;13.82;64.87
77027;BME280;65956;52.986;17.490;2023-03-14T13:30:12;97911.25;;;13.88;63.62
77027;BME280;65956;52.986;17.490;2023-03-14T13:32:47;97911.05;;;14.08;63.43
77027;BME280;65956;52.986;17.490;2023-03-14T13:35:23;97914.27;;;14.26;62.71
77027;BME280;65956;52.986;17.490;2023-03-14T13:37:58;97917.09;;;14.44;61.83
77027;BME280;65956;52.986;17.490;2023-03-14T13:40:33;97925.95;;;14.60;60.83
77027;BME280;65956;52.986;17.490;2023-03-14T13:45:50;97917.67;;;14.98;58.46
77027;BME280;65956;52.986;17.490;2023-03-14T13:48:17;97912.10;;;15.22;58.00
77027;BME280;65956;52.986;17.490;2023-03-14T13:50:53;97908.69;;;15.38;56.54
77027;BME280;65956;52.986;17.490;2023-03-14T13:53:21;97904.75;;;15.83;55.67
77027;BME280;65956;52.986;17.490;2023-03-14T13:55:49;97896.30;;;16.29;53.60
77027;BME280;65956;52.986;17.490;2023-03-14T14:01:03;97894.83;;;17.34;51.11
77027;BME280;65956;52.986;17.490;2023-03-14T14:03:32;97895.39;;;17.18;50.45
77027;BME280;65956;52.986;17.490;2023-03-14T14:06:00;97892.41;;;16.95;51.61
77027;BME280;65956;52.986;17.490;2023-03-14T14:08:27;97892.95;;;16.73;52.68
77027;BME280;65956;52.986;17.490;2023-03-14T14:10:58;97890.64;;;16.21;51.97
77027;BME280;65956;52.986;17.490;2023-03-14T14:13:28;97898.27;;;15.69;52.13
77027;BME280;65956;52.986;17.490;2023-03-14T14:15:59;97898.59;;;15.48;52.12
77027;BME280;65956;52.986;17.490;2023-03-14T14:18:28;97900.35;;;15.30;53.03
77027;BME280;65956;52.986;17.490;2023-03-14T14:20:55;97896.45;;;15.24;54.21
77027;BME280;65956;52.986;17.490;2023-03-14T14:23:26;97900.73;;;15.06;54.54
77027;BME280;65956;52.986;17.490;2023-03-14T14:25:58;97898.84;;;15.04;54.36
77027;BME280;65956;52.986;17.490;2023-03-14T14:28:32;97895.52;;;15.09;53.71
77027;BME280;65956;52.986;17.490;2023-03-14T14:31:02;97891.97;;;15.72;51.88
77027;BME280;65956;52.986;17.490;2023-03-14T14:33:37;97894.09;;;15.88;51.75
77027;BME280;65956;52.986;17.490;2023-03-14T14:36:05;97894.25;;;15.56;52.88
77027;BME280;65956;52.986;17.490;2023-03-14T14:38:39;97901.73;;;15.37;53.41
77027;BME280;65956;52.986;17.490;2023-03-14T14:41:05;97901.65;;;15.63;52.51
77027;BME280;65956;52.986;17.490;2023-03-14T14:43:36;97898.02;;;15.83;51.45
77027;BME280;65956;52.986;17.490;2023-03-14T14:46:06;97902.48;;;15.84;51.67
77027;BME280;65956;52.986;17.490;2023-03-14T14:48:37;97901.49;;;15.48;52.98
77027;BME280;65956;52.986;17.490;2023-03-14T14:51:06;97902.69;;;15.14;54.13
77027;BME280;65956;52.986;17.490;2023-03-14T14:56:27;97897.36;;;14.49;55.79
77027;BME280;65956;52.986;17.490;2023-03-14T14:58:58;97897.40;;;14.23;56.48
77027;BME280;65956;52.986;17.490;2023-03-14T15:01:38;97890.75;;;14.07;57.18
77027;BME280;65956;52.986;17.490;2023-03-14T15:04:13;97893.48;;;13.81;57.93
77027;BME280;65956;52.986;17.490;2023-03-14T15:06:46;97890.85;;;13.62;58.71
77027;BME280;65956;52.986;17.490;2023-03-14T15:09:14;97888.55;;;13.45;59.20
77027;BME280;65956;52.986;17.490;2023-03-14T15:11:44;97897.25;;;13.34;59.72
77027;BME280;65956;52.986;17.490;2023-03-14T15:14:11;97900.77;;;13.22;59.89
77027;BME280;65956;52.986;17.490;2023-03-14T15:16:38;97898.66;;;13.12;60.16
77027;BME280;65956;52.986;17.490;2023-03-14T15:19:19;97903.15;;;13.04;60.44
77027;BME280;65956;52.986;17.490;2023-03-14T15:21:46;97905.90;;;12.98;61.00
77027;BME280;65956;52.986;17.490;2023-03-14T15:24:13;97906.56;;;12.92;61.58
77027;BME280;65956;52.986;17.490;2023-03-14T15:26:40;97903.17;;;12.88;61.59
77027;BME280;65956;52.986;17.490;2023-03-14T15:29:09;97899.46;;;12.84;61.79
77027;BME280;65956;52.986;17.490;2023-03-14T15:31:39;97899.25;;;12.83;61.86
77027;BME280;65956;52.986;17.490;2023-03-14T15:34:06;97893.88;;;12.84;61.80
77027;BME280;65956;52.986;17.490;2023-03-14T15:36:34;97893.52;;;12.82;62.09
77027;BME280;65956;52.986;17.490;2023-03-14T15:39:04;97897.89;;;12.81;62.00
77027;BME280;65956;52.986;17.490;2023-03-14T15:41:32;97897.55;;;12.79;61.89
77027;BME280;65956;52.986;17.490;2023-03-14T15:43:58;97899.44;;;12.77;61.76
77027;BME280;65956;52.986;17.490;2023-03-14T15:46:25;97897.05;;;12.77;61.93
77027;BME280;65956;52.986;17.490;2023-03-14T15:48:52;97902.74;;;12.73;61.88
77027;BME280;65956;52.986;17.490;2023-03-14T15:51:19;97909.45;;;12.70;62.24
77027;BME280;65956;52.986;17.490;2023-03-14T15:53:45;97911.68;;;12.68;62.01
77027;BME280;65956;52.986;17.490;2023-03-14T15:56:17;97909.80;;;12.64;62.20
77027;BME280;65956;52.986;17.490;2023-03-14T15:58:45;97909.76;;;12.60;62.21
77027;BME280;65956;52.986;17.490;2023-03-14T16:01:14;97905.73;;;12.54;62.28
77027;BME280;65956;52.986;17.490;2023-03-14T16:03:45;97910.79;;;12.50;62.03
77027;BME280;65956;52.986;17.490;2023-03-14T16:06:13;97908.31;;;12.47;62.30
77027;BME280;65956;52.986;17.490;2023-03-14T16:08:41;97903.80;;;12.43;62.14
77027;BME280;65956;52.986;17.490;2023-03-14T16:11:18;97904.34;;;12.41;62.00
77027;BME280;65956;52.986;17.490;2023-03-14T16:13:45;97907.61;;;12.38;62.25
77027;BME280;65956;52.986;17.490;2023-03-14T16:16:15;97912.11;;;12.32;62.33
77027;BME280;65956;52.986;17.490;2023-03-14T16:18:42;97910.34;;;12.27;62.52
77027;BME280;65956;52.986;17.490;2023-03-14T16:21:17;97914.17;;;12.24;62.64
77027;BME280;65956;52.986;17.490;2023-03-14T16:23:46;97911.64;;;12.17;62.82
77027;BME280;65956;52.986;17.490;2023-03-14T16:26:16;97908.45;;;12.12;63.04
77027;BME280;65956;52.986;17.490;2023-03-14T16:28:44;97909.42;;;12.06;63.29
77027;BME280;65956;52.986;17.490;2023-03-14T16:31:15;97907.58;;;11.97;63.68
77027;BME280;65956;52.986;17.490;2023-03-14T16:33:46;97904.46;;;11.89;64.18
77027;BME280;65956;52.986;17.490;2023-03-14T16:36:13;97904.78;;;11.83;64.44
77027;BME280;65956;52.986;17.490;2023-03-14T16:38:42;97905.08;;;11.77;64.48
77027;BME280;65956;52.986;17.490;2023-03-14T16:41:15;97904.17;;;11.73;64.76
77027;BME280;65956;52.986;17.490;2023-03-14T16:43:43;97907.09;;;11.70;65.00
77027;BME280;65956;52.986;17.490;2023-03-14T16:46:14;97908.52;;;11.66;65.22
77027;BME280;65956;52.986;17.490;2023-03-14T16:48:44;97908.77;;;11.63;65.39
77027;BME280;65956;52.986;17.490;2023-03-14T16:51:19;97914.02;;;11.61;65.32
77027;BME280;65956;52.986;17.490;2023-03-14T16:53:50;97917.90;;;11.58;65.37
77027;BME280;65956;52.986;17.490;2023-03-14T16:56:17;97925.05;;;11.56;65.73
77027;BME280;65956;52.986;17.490;2023-03-14T16:58:48;97932.63;;;11.53;65.98
77027;BME280;65956;52.986;17.490;2023-03-14T17:01:16;97935.24;;;11.49;66.19
77027;BME280;65956;52.986;17.490;2023-03-14T17:03:45;97933.80;;;11.48;66.28
77027;BME280;65956;52.986;17.490;2023-03-14T17:06:18;97935.23;;;11.44;66.63
77027;BME280;65956;52.986;17.490;2023-03-14T17:08:46;97936.14;;;11.43;66.73
77027;BME280;65956;52.986;17.490;2023-03-14T17:11:12;97938.27;;;11.40;67.19
77027;BME280;65956;52.986;17.490;2023-03-14T17:13:39;97946.41;;;11.37;68.13
77027;BME280;65956;52.986;17.490;2023-03-14T17:16:06;97946.69;;;11.29;68.87
77027;BME280;65956;52.986;17.490;2023-03-14T17:18:34;97947.48;;;11.22;69.45
77027;BME280;65956;52.986;17.490;2023-03-14T17:21:03;97957.42;;;11.16;69.73
77027;BME280;65956;52.986;17.490;2023-03-14T17:23:34;97959.71;;;11.10;69.90
77027;BME280;65956;52.986;17.490;2023-03-14T17:26:01;97959.83;;;11.02;70.32
77027;BME280;65956;52.986;17.490;2023-03-14T17:28:29;97961.63;;;10.99;70.61
77027;BME280;65956;52.986;17.490;2023-03-14T17:31:13;97962.30;;;10.94;71.04
77027;BME280;65956;52.986;17.490;2023-03-14T17:33:40;97965.70;;;10.88;71.46
77027;BME280;65956;52.986;17.490;2023-03-14T17:36:08;97971.74;;;10.81;71.80
77027;BME280;65956;52.986;17.490;2023-03-14T17:38:36;97966.73;;;10.73;72.36
77027;BME280;65956;52.986;17.490;2023-03-14T17:41:09;97972.17;;;10.68;72.74
77027;BME280;65956;52.986;17.490;2023-03-14T17:43:37;97970.98;;;10.64;72.87
77027;BME280;65956;52.986;17.490;2023-03-14T17:46:09;97974.35;;;10.60;73.31
77027;BME280;65956;52.986;17.490;2023-03-14T17:48:41;97972.21;;;10.58;73.64
77027;BME280;65956;52.986;17.490;2023-03-14T17:51:08;97976.48;;;10.57;73.83
77027;BME280;65956;52.986;17.490;2023-03-14T17:53:35;97972.54;;;10.55;74.09
77027;BME280;65956;52.986;17.490;2023-03-14T17:56:02;97972.58;;;10.53;74.43
77027;BME280;65956;52.986;17.490;2023-03-14T17:58:30;97970.92;;;10.52;74.47
77027;BME280;65956;52.986;17.490;2023-03-14T18:01:18;97969.63;;;10.49;74.69
77027;BME280;65956;52.986;17.490;2023-03-14T18:03:46;97970.63;;;10.47;74.96
77027;BME280;65956;52.986;17.490;2023-03-14T18:06:15;97976.62;;;10.46;74.89
77027;BME280;65956;52.986;17.490;2023-03-14T18:08:43;97976.14;;;10.45;74.54
77027;BME280;65956;52.986;17.490;2023-03-14T18:11:12;97977.14;;;10.43;74.52
77027;BME280;65956;52.986;17.490;2023-03-14T18:13:39;97984.14;;;10.44;74.82
77027;BME280;65956;52.986;17.490;2023-03-14T18:16:08;97981.23;;;10.42;74.78
77027;BME280;65956;52.986;17.490;2023-03-14T18:18:40;97978.82;;;10.39;74.91
77027;BME280;65956;52.986;17.490;2023-03-14T18:21:07;97980.85;;;10.37;75.07
77027;BME280;65956;52.986;17.490;2023-03-14T18:23:34;97977.48;;;10.35;74.95
77027;BME280;65956;52.986;17.490;2023-03-14T18:26:02;97978.95;;;10.32;75.11
77027;BME280;65956;52.986;17.490;2023-03-14T18:28:29;97980.64;;;10.27;75.05
77027;BME280;65956;52.986;17.490;2023-03-14T18:31:07;97980.71;;;10.23;75.35
77027;BME280;65956;52.986;17.490;2023-03-14T18:33:38;97980.56;;;10.19;75.78
77027;BME280;65956;52.986;17.490;2023-03-14T18:36:08;97979.84;;;10.15;75.71
77027;BME280;65956;52.986;17.490;2023-03-14T18:38:36;97980.30;;;10.11;76.02
77027;BME280;65956;52.986;17.490;2023-03-14T18:41:10;97980.73;;;10.09;75.94
77027;BME280;65956;52.986;17.490;2023-03-14T18:43:38;97980.20;;;10.07;76.00
77027;BME280;65956;52.986;17.490;2023-03-14T18:46:06;97985.45;;;10.07;76.21
77027;BME280;65956;52.986;17.490;2023-03-14T18:48:33;97986.96;;;10.07;76.02
77027;BME280;65956;52.986;17.490;2023-03-14T18:51:00;97988.55;;;10.07;76.07
77027;BME280;65956;52.986;17.490;2023-03-14T18:53:27;97989.66;;;10.07;76.23
77027;BME280;65956;52.986;17.490;2023-03-14T18:55:58;97985.85;;;10.07;76.47
77027;BME280;65956;52.986;17.490;2023-03-14T18:58:31;97990.22;;;10.07;76.51
77027;BME280;65956;52.986;17.490;2023-03-14T19:01:02;97987.92;;;10.06;76.45
77027;BME280;65956;52.986;17.490;2023-03-14T19:03:31;97983.55;;;10.07;76.26
77027;BME280;65956;52.986;17.490;2023-03-14T19:05:58;97988.07;;;10.08;76.21
77027;BME280;65956;52.986;17.490;2023-03-14T19:08:27;97992.86;;;10.10;75.90
77027;BME280;65956;52.986;17.490;2023-03-14T19:10:55;97996.21;;;10.14;75.58
77027;BME280;65956;52.986;17.490;2023-03-14T19:13:24;97997.23;;;10.21;75.06
77027;BME280;65956;52.986;17.490;2023-03-14T19:15:58;97994.96;;;10.23;74.82
77027;BME280;65956;52.986;17.490;2023-03-14T19:18:26;98003.20;;;10.29;74.38
77027;BME280;65956;52.986;17.490;2023-03-14T19:21:03;98005.75;;;10.32;74.24
77027;BME280;65956;52.986;17.490;2023-03-14T19:23:32;98003.58;;;10.34;73.84
77027;BME280;65956;52.986;17.490;2023-03-14T19:26:01;98005.10;;;10.37;73.97
77027;BME280;65956;52.986;17.490;2023-03-14T19:28:29;98005.51;;;10.37;74.20